Time;durP1;ratioP1;P1;durP2;ratioP2;P2;SDS_P1;SDS_P2;PMS_P1;PMS_P2;Temp;Humidity;BMP_temperature;BMP_pressure;BME280_temperature;BME280_humidity;BME280_pressure;Samples;Min_cycle;Max_cycle;Signal;HPM_P1;HPM_P2
2023/07/31 00:01:43;;;;;;;4.05;3.40;;;;;;;22.59;79.25;94845.81;4940792;28;20226;-69
2023/07/31 00:04:09;;;;;;;4.68;3.80;;;;;;;22.51;78.58;94846.38;4945642;28;20241;-69
2023/07/31 00:06:35;;;;;;;5.10;3.60;;;;;;;22.45;78.60;94845.59;4931367;28;20230;-69
2023/07/31 00:09:01;;;;;;;4.22;3.47;;;;;;;22.48;78.69;94846.91;4944862;28;20244;-69
2023/07/31 00:11:26;;;;;;;5.32;3.70;;;;;;;22.58;78.25;94849.53;4933896;28;21231;-69
2023/07/31 00:13:53;;;;;;;4.10;3.58;;;;;;;22.42;78.29;94851.50;4968249;28;20244;-69
2023/07/31 00:16:19;;;;;;;4.88;3.60;;;;;;;22.48;78.24;94853.06;4963295;28;20237;-69
2023/07/31 00:18:44;;;;;;;5.47;3.60;;;;;;;22.59;77.75;94859.16;4947153;28;20302;-68
2023/07/31 00:21:10;;;;;;;4.47;3.63;;;;;;;22.59;78.07;94857.25;4960088;28;20260;-69
2023/07/31 00:23:35;;;;;;;4.68;3.60;;;;;;;22.47;78.55;94856.00;4932433;28;20252;-69
2023/07/31 00:26:01;;;;;;;5.10;3.83;;;;;;;22.57;78.19;94845.28;4940883;28;20339;-69
2023/07/31 00:28:28;;;;;;;4.82;3.75;;;;;;;22.56;77.79;94846.34;4960141;28;20236;-68
2023/07/31 00:30:54;;;;;;;5.18;3.90;;;;;;;22.45;78.65;94836.81;4933138;28;20316;-68
2023/07/31 00:33:19;;;;;;;5.30;3.88;;;;;;;22.34;79.48;94827.25;4938405;28;20382;-69
2023/07/31 00:35:45;;;;;;;4.90;4.10;;;;;;;22.33;81.09;94818.44;4933822;28;20237;-68
2023/07/31 00:38:10;;;;;;;4.93;4.03;;;;;;;22.47;79.72;94810.66;4937246;29;20237;-68
2023/07/31 00:40:37;;;;;;;8.55;4.63;;;;;;;22.47;79.97;94816.00;4940103;28;20264;-67
2023/07/31 00:43:03;;;;;;;5.53;4.50;;;;;;;22.27;81.56;94808.09;4940320;28;20252;-69
2023/07/31 00:45:28;;;;;;;4.95;4.10;;;;;;;22.27;81.84;94808.09;4947631;28;20230;-69
2023/07/31 00:47:54;;;;;;;5.60;4.53;;;;;;;22.35;81.43;94813.66;4931897;28;20243;-69
2023/07/31 00:50:20;;;;;;;5.75;4.22;;;;;;;22.21;82.26;94814.53;4929908;28;20260;-68
2023/07/31 00:52:45;;;;;;;7.63;5.05;;;;;;;22.18;82.46;94823.06;4934460;28;20259;-68
2023/07/31 00:55:11;;;;;;;7.05;5.15;;;;;;;22.22;82.48;94827.59;4963313;28;20267;-68
2023/07/31 00:57:37;;;;;;;6.57;5.07;;;;;;;22.22;82.87;94830.25;4942405;28;20260;-68
2023/07/31 01:00:03;;;;;;;7.05;5.70;;;;;;;22.02;83.80;94819.66;4948669;28;20235;-69
2023/07/31 01:02:29;;;;;;;7.57;6.00;;;;;;;21.98;84.40;94802.63;4948778;28;20232;-68
2023/07/31 01:04:55;;;;;;;8.77;6.32;;;;;;;22.04;84.24;94805.00;4934538;29;20245;-69
2023/07/31 01:07:27;;;;;;;8.65;6.55;;;;;;;22.21;83.40;94806.53;4948212;28;20229;-69
2023/07/31 01:09:58;;;;;;;9.70;6.95;;;;;;;22.23;83.97;94801.72;4938851;28;20316;-68
2023/07/31 01:12:24;;;;;;;10.00;8.40;;;;;;;22.09;84.19;94809.53;4962552;28;20232;-68
2023/07/31 01:15:11;;;;;;;10.60;8.70;;;;;;;21.90;85.67;94808.53;4918759;28;20284;-68
2023/07/31 01:17:38;;;;;;;10.50;8.40;;;;;;;21.86;85.78;94805.59;4937158;28;20241;-68
2023/07/31 01:20:05;;;;;;;13.25;9.18;;;;;;;21.88;85.52;94794.66;4946427;28;20232;-68
2023/07/31 01:22:31;;;;;;;12.45;8.93;;;;;;;21.97;85.17;94798.38;4916319;28;20236;-68
2023/07/31 01:25:18;;;;;;;11.05;9.13;;;;;;;22.05;84.85;94800.47;4932475;29;20237;-69
2023/07/31 01:27:51;;;;;;;13.55;9.73;;;;;;;21.92;85.88;94795.72;4951800;28;20336;-69
2023/07/31 01:30:17;;;;;;;13.13;9.88;;;;;;;22.00;85.72;94808.47;4972624;28;20217;-69
2023/07/31 01:32:43;;;;;;;14.23;10.30;;;;;;;22.00;85.59;94795.16;4925090;29;20275;-69
2023/07/31 01:35:09;;;;;;;13.98;11.07;;;;;;;21.96;85.79;94789.59;4939243;28;20288;-69
2023/07/31 01:37:35;;;;;;;14.30;10.93;;;;;;;21.99;85.40;94781.03;4914998;29;20234;-69
2023/07/31 01:40:01;;;;;;;16.83;12.77;;;;;;;21.99;85.63;94797.03;4937194;29;20766;-68
2023/07/31 01:42:26;;;;;;;16.85;12.93;;;;;;;21.96;86.13;94794.09;4913095;28;20874;-69
2023/07/31 01:44:52;;;;;;;17.60;13.10;;;;;;;22.01;85.96;94791.44;4996632;28;20236;-68
2023/07/31 01:47:17;;;;;;;20.80;14.35;;;;;;;21.94;86.58;94793.59;4999915;28;20618;-68
2023/07/31 01:49:43;;;;;;;23.58;16.15;;;;;;;21.88;86.92;94790.13;4917679;28;20339;-67
2023/07/31 01:52:09;;;;;;;23.00;16.73;;;;;;;21.87;87.55;94793.88;4968208;28;20331;-68
2023/07/31 01:54:36;;;;;;;22.45;16.88;;;;;;;21.92;86.94;94799.19;4944930;28;20243;-68
2023/07/31 01:57:02;;;;;;;22.88;16.85;;;;;;;21.94;87.26;94801.59;4935443;28;20247;-69
2023/07/31 01:59:28;;;;;;;24.58;17.38;;;;;;;21.91;87.20;94799.47;4945760;28;20706;-69
2023/07/31 02:01:54;;;;;;;23.42;17.40;;;;;;;21.79;87.72;94796.28;4924821;28;20732;-68
2023/07/31 02:04:20;;;;;;;24.73;16.90;;;;;;;21.72;89.19;94801.09;4936342;28;20240;-69
2023/07/31 02:06:45;;;;;;;22.80;17.58;;;;;;;21.76;88.47;94802.13;4938531;28;20233;-69
2023/07/31 02:09:11;;;;;;;23.63;17.00;;;;;;;21.68;89.23;94794.72;4944852;28;20933;-68
2023/07/31 02:11:37;;;;;;;21.23;16.25;;;;;;;21.47;90.16;94802.75;4937947;28;20240;-68
2023/07/31 02:14:02;;;;;;;23.17;16.20;;;;;;;21.64;89.79;94797.13;4926121;28;20240;-68
2023/07/31 02:16:28;;;;;;;22.65;16.17;;;;;;;21.71;89.14;94812.84;4938307;28;21256;-68
2023/07/31 02:18:54;;;;;;;25.45;16.60;;;;;;;21.76;89.50;94810.13;4937238;28;20237;-69
2023/07/31 02:21:19;;;;;;;22.70;15.90;;;;;;;21.82;88.97;94811.72;4941663;28;20255;-69
2023/07/31 02:23:45;;;;;;;25.58;16.58;;;;;;;21.84;88.88;94812.25;4949507;28;20263;-69
2023/07/31 02:26:11;;;;;;;22.55;16.55;;;;;;;21.82;88.89;94811.72;4937744;28;20315;-68
2023/07/31 02:28:37;;;;;;;23.45;16.02;;;;;;;21.88;88.52;94805.31;4929253;28;20251;-69
2023/07/31 02:31:02;;;;;;;22.40;16.50;;;;;;;21.90;88.81;94811.19;4930667;28;20628;-68
2023/07/31 02:33:28;;;;;;;20.92;15.80;;;;;;;21.86;89.45;94807.47;4952329;28;20231;-68
2023/07/31 02:35:54;;;;;;;21.52;16.42;;;;;;;21.89;88.82;94806.94;4950051;28;20235;-69
2023/07/31 02:38:19;;;;;;;23.13;16.90;;;;;;;21.82;89.12;94807.19;4954596;28;20236;-68
2023/07/31 02:40:46;;;;;;;23.23;16.90;;;;;;;21.89;89.00;94809.59;4940526;28;20693;-69
2023/07/31 02:43:11;;;;;;;24.63;16.55;;;;;;;21.97;88.63;94801.81;4939517;28;20245;-69
2023/07/31 02:45:37;;;;;;;23.13;16.30;;;;;;;21.94;88.87;94805.06;4926112;28;20264;-68
2023/07/31 02:48:03;;;;;;;21.35;16.52;;;;;;;21.83;89.50;94813.34;4922943;28;20232;-69
2023/07/31 02:50:28;;;;;;;23.45;17.13;;;;;;;21.89;89.23;94806.94;4954128;28;20611;-68
2023/07/31 02:52:54;;;;;;;24.98;17.65;;;;;;;21.88;89.16;94811.47;4953686;28;20236;-68
2023/07/31 02:55:20;;;;;;;24.60;17.23;;;;;;;21.90;88.79;94821.88;4934731;28;20237;-68
2023/07/31 02:57:45;;;;;;;24.67;17.33;;;;;;;21.97;88.71;94825.81;4930223;28;20240;-69
2023/07/31 03:00:11;;;;;;;25.42;17.58;;;;;;;22.04;88.42;94833.53;4957371;28;20232;-68
2023/07/31 03:02:37;;;;;;;26.05;17.95;;;;;;;21.97;88.71;94831.13;4924190;28;20244;-69
2023/07/31 03:05:03;;;;;;;23.63;17.33;;;;;;;21.93;89.06;94829.28;4924933;28;20235;-68
2023/07/31 03:07:30;;;;;;;24.00;17.30;;;;;;;22.02;88.42;94833.00;4967101;28;20251;-69
2023/07/31 03:09:55;;;;;;;25.35;17.45;;;;;;;21.96;88.93;94831.41;4943450;28;20233;-69
2023/07/31 03:12:21;;;;;;;24.27;17.60;;;;;;;22.07;88.04;94840.97;4937763;28;20329;-70
2023/07/31 03:14:46;;;;;;;24.75;17.70;;;;;;;21.95;88.78;94832.47;4927242;28;20608;-69
2023/07/31 03:17:12;;;;;;;25.92;18.08;;;;;;;21.93;88.74;94839.97;4921186;28;20319;-68
2023/07/31 03:19:38;;;;;;;29.65;18.40;;;;;;;21.97;88.90;94836.47;4935991;28;20400;-69
2023/07/31 03:22:03;;;;;;;25.85;17.83;;;;;;;21.98;88.36;94843.41;4956221;28;20302;-69
2023/07/31 03:24:29;;;;;;;23.70;17.10;;;;;;;21.99;88.68;94833.56;4953764;28;20323;-68
2023/07/31 03:26:55;;;;;;;23.60;17.75;;;;;;;21.99;88.82;94833.56;4935284;28;20233;-69
2023/07/31 03:29:20;;;;;;;24.08;17.60;;;;;;;22.01;88.88;94842.06;4931696;28;20270;-69
2023/07/31 03:31:46;;;;;;;25.17;17.85;;;;;;;22.09;88.47;94839.63;4945345;28;20228;-69
2023/07/31 03:34:12;;;;;;;24.88;17.98;;;;;;;22.00;88.84;94840.47;4932917;28;20236;-69
2023/07/31 03:36:38;;;;;;;26.10;17.83;;;;;;;21.98;89.08;94847.94;4922677;28;20677;-69
2023/07/31 03:39:04;;;;;;;24.67;17.63;;;;;;;22.11;88.20;94848.16;4923603;28;20247;-70
2023/07/31 03:41:30;;;;;;;26.27;17.92;;;;;;;22.07;88.39;94841.78;4923621;28;20225;-68
2023/07/31 03:43:57;;;;;;;26.35;17.95;;;;;;;22.05;88.38;94846.59;4952206;28;20242;-69
2023/07/31 03:46:26;;;;;;;25.15;18.05;;;;;;;22.02;88.48;94848.97;4953110;28;20756;-69
2023/07/31 03:48:51;;;;;;;27.00;18.67;;;;;;;21.90;88.87;94851.97;4952419;28;20627;-72
2023/07/31 03:51:17;;;;;;;26.80;19.15;;;;;;;21.85;88.81;94851.97;4921657;28;20308;-70
2023/07/31 03:53:43;;;;;;;26.05;18.50;;;;;;;21.85;89.10;94848.53;4938384;28;20310;-69
2023/07/31 03:56:09;;;;;;;27.88;19.08;;;;;;;21.92;88.33;94851.72;4941284;28;20240;-69
2023/07/31 03:58:35;;;;;;;29.58;19.00;;;;;;;21.96;88.48;94863.41;4947817;28;20670;-69
2023/07/31 04:01:01;;;;;;;29.17;19.27;;;;;;;21.91;88.43;94858.91;4949921;28;20233;-69
2023/07/31 04:03:27;;;;;;;28.00;19.30;;;;;;;21.85;88.81;94851.97;4940383;28;20243;-69
2023/07/31 04:05:54;;;;;;;28.58;19.42;;;;;;;21.87;88.38;94863.19;4919467;28;20260;-69
2023/07/31 04:08:20;;;;;;;28.55;19.73;;;;;;;21.85;88.83;94861.84;4950315;28;20263;-70
2023/07/31 04:10:47;;;;;;;31.90;19.88;;;;;;;21.89;88.59;94862.91;4929177;28;20657;-68
2023/07/31 04:13:13;;;;;;;28.02;19.15;;;;;;;21.91;88.46;94866.88;4937722;28;20608;-68
2023/07/31 04:15:43;;;;;;;28.73;20.25;;;;;;;21.87;88.40;94860.50;4935172;28;20243;-69
2023/07/31 04:18:09;;;;;;;28.48;19.88;;;;;;;21.89;88.33;94862.91;4925291;28;20708;-70
2023/07/31 04:20:34;;;;;;;28.63;19.75;;;;;;;21.98;87.88;94869.25;4938041;28;20236;-70
2023/07/31 04:23:00;;;;;;;31.13;20.20;;;;;;;21.95;88.08;94872.47;4934720;28;20245;-70
2023/07/31 04:25:26;;;;;;;32.22;20.98;;;;;;;21.93;88.17;94877.28;4951195;28;20231;-71
2023/07/31 04:27:51;;;;;;;29.27;20.02;;;;;;;21.85;88.17;94875.94;4930621;28;20235;-70
2023/07/31 04:30:17;;;;;;;29.52;20.35;;;;;;;22.01;87.74;94879.38;4934990;28;20229;-69
2023/07/31 04:32:43;;;;;;;29.88;19.75;;;;;;;21.98;87.68;94877.25;4951046;28;20259;-70
2023/07/31 04:35:08;;;;;;;28.73;19.90;;;;;;;21.95;87.84;94880.47;4918896;28;20275;-69
2023/07/31 04:37:34;;;;;;;30.35;20.00;;;;;;;21.87;87.70;94879.16;4933185;28;20255;-71
2023/07/31 04:40:00;;;;;;;38.08;20.23;;;;;;;21.85;87.60;94875.94;4949328;28;20284;-71
2023/07/31 04:42:25;;;;;;;27.83;19.08;;;;;;;21.86;87.74;94874.09;4942077;28;20233;-70
2023/07/31 04:44:52;;;;;;;28.92;19.63;;;;;;;21.81;87.34;94876.72;4922165;28;20258;-70
2023/07/31 04:47:18;;;;;;;28.55;19.25;;;;;;;21.83;87.63;94882.63;4931835;28;20240;-70
2023/07/31 04:49:44;;;;;;;29.42;19.92;;;;;;;21.82;87.25;94876.47;4923660;28;20815;-71
2023/07/31 04:52:09;;;;;;;30.02;19.35;;;;;;;21.91;87.14;94876.75;4939839;28;20233;-69
2023/07/31 04:54:35;;;;;;;33.45;19.63;;;;;;;21.88;87.50;94875.41;4946986;28;20389;-69
2023/07/31 04:57:01;;;;;;;29.90;19.00;;;;;;;22.07;86.54;94881.75;4936207;28;20237;-69
2023/07/31 04:59:27;;;;;;;27.90;18.58;;;;;;;22.18;85.30;94884.41;4953151;28;20232;-68
2023/07/31 05:01:53;;;;;;;28.33;18.92;;;;;;;22.17;85.30;94883.59;4941645;28;20251;-70
2023/07/31 05:04:18;;;;;;;27.88;18.90;;;;;;;22.20;85.54;94872.41;4937542;28;20237;-70
2023/07/31 05:06:44;;;;;;;30.08;19.33;;;;;;;22.36;85.04;94870.44;4949007;28;20244;-71
2023/07/31 05:09:10;;;;;;;30.17;18.67;;;;;;;22.45;84.54;94869.59;4934937;28;20236;-69
2023/07/31 05:11:36;;;;;;;29.17;18.20;;;;;;;22.38;84.66;94871.00;4923083;28;20609;-71
2023/07/31 05:14:02;;;;;;;26.30;18.25;;;;;;;22.37;85.05;94877.38;4940164;28;20540;-70
2023/07/31 05:16:27;;;;;;;26.65;18.67;;;;;;;22.42;85.18;94880.03;4934323;28;20240;-70
2023/07/31 05:18:53;;;;;;;24.15;17.88;;;;;;;22.41;84.87;94871.22;4928756;28;20233;-69
2023/07/31 05:21:19;;;;;;;22.60;16.55;;;;;;;22.41;84.31;94873.91;4953702;28;20247;-70
2023/07/31 05:23:45;;;;;;;23.05;16.23;;;;;;;22.47;83.94;94880.81;4937250;28;20244;-70
2023/07/31 05:26:11;;;;;;;20.60;15.07;;;;;;;22.46;83.60;94863.22;4952883;28;20710;-69
2023/07/31 05:28:37;;;;;;;22.50;15.65;;;;;;;22.60;82.87;94872.19;4938908;28;20323;-71
2023/07/31 05:31:04;;;;;;;19.58;14.80;;;;;;;23.49;78.50;94868.44;4939009;28;20306;-70
2023/07/31 05:33:29;;;;;;;19.80;14.73;;;;;;;23.84;76.62;94872.63;4939703;28;20248;-72
2023/07/31 05:35:55;;;;;;;19.98;14.07;;;;;;;23.75;76.05;94867.13;4940677;28;20228;-74
2023/07/31 05:38:21;;;;;;;18.13;14.25;;;;;;;22.99;79.53;94872.28;4953466;28;20559;-70
2023/07/31 05:40:47;;;;;;;20.88;13.63;;;;;;;22.88;80.16;94868.06;4945805;28;20260;-69
2023/07/31 05:43:13;;;;;;;17.25;13.55;;;;;;;22.60;81.16;94855.38;4941984;28;20714;-71
2023/07/31 05:45:40;;;;;;;19.80;13.23;;;;;;;22.59;81.68;94859.16;4937924;28;20266;-70
2023/07/31 05:48:05;;;;;;;18.02;12.57;;;;;;;22.40;81.31;94866.97;4937926;28;20313;-70
2023/07/31 05:50:31;;;;;;;15.68;11.68;;;;;;;22.50;80.52;94872.25;4928225;28;20240;-71
2023/07/31 05:52:57;;;;;;;14.73;11.13;;;;;;;22.38;80.42;94869.09;4929967;28;20247;-71
2023/07/31 05:55:23;;;;;;;15.40;11.43;;;;;;;22.42;80.15;94869.38;4923053;28;20320;-70
2023/07/31 05:57:49;;;;;;;14.40;10.90;;;;;;;22.51;80.02;94879.19;4961230;28;20651;-71
2023/07/31 06:00:15;;;;;;;14.02;10.57;;;;;;;22.36;79.74;94876.59;4941954;28;20867;-70
2023/07/31 06:02:41;;;;;;;14.38;10.30;;;;;;;22.47;79.13;94883.50;4938794;28;20333;-70
2023/07/31 06:05:07;;;;;;;13.32;9.43;;;;;;;22.30;79.18;94891.03;4927569;28;20275;-70
2023/07/31 06:07:33;;;;;;;11.80;9.35;;;;;;;22.31;78.71;94886.47;4937656;28;20258;-70
2023/07/31 06:10:04;;;;;;;10.15;8.68;;;;;;;22.39;78.05;94886.72;4945156;28;20245;-69
2023/07/31 06:12:31;;;;;;;13.75;8.13;;;;;;;22.56;76.87;94891.72;4944432;28;20343;-70
2023/07/31 06:14:56;;;;;;;12.55;8.40;;;;;;;22.68;76.71;94887.69;4942475;28;20229;-70
2023/07/31 06:17:22;;;;;;;12.32;8.20;;;;;;;22.81;76.12;94888.16;4950714;28;20248;-71
2023/07/31 06:19:49;;;;;;;10.35;8.45;;;;;;;22.99;75.67;94890.16;4936678;28;20233;-71
2023/07/31 06:22:14;;;;;;;10.23;7.75;;;;;;;22.99;75.46;94882.16;4954055;28;20237;-71
2023/07/31 06:24:40;;;;;;;9.95;7.07;;;;;;;23.07;74.58;94882.34;4943212;28;20732;-70
2023/07/31 06:27:06;;;;;;;11.32;7.20;;;;;;;22.99;74.35;94896.31;4953775;28;20248;-71
2023/07/31 06:29:32;;;;;;;10.25;6.88;;;;;;;23.01;73.77;94885.34;4943502;28;20389;-70
2023/07/31 06:31:58;;;;;;;9.23;6.65;;;;;;;22.97;73.83;94890.44;4944763;28;20332;-71
2023/07/31 06:34:24;;;;;;;9.35;6.53;;;;;;;22.85;74.40;94881.19;4936320;28;20267;-69
2023/07/31 06:36:49;;;;;;;8.00;6.68;;;;;;;22.83;74.53;94886.78;4956381;28;20272;-69
2023/07/31 06:39:15;;;;;;;8.77;6.60;;;;;;;22.76;74.75;94889.75;4955279;28;20330;-70
2023/07/31 06:41:41;;;;;;;10.95;5.97;;;;;;;22.69;74.39;94886.59;4949798;28;20607;-70
2023/07/31 06:44:07;;;;;;;8.27;6.03;;;;;;;22.88;74.55;94883.28;4939660;28;20268;-69
2023/07/31 06:46:32;;;;;;;8.40;6.25;;;;;;;22.79;74.47;94880.41;4948150;28;20259;-70
2023/07/31 06:48:58;;;;;;;9.70;5.75;;;;;;;22.95;74.21;94883.78;4935727;28;20244;-71
2023/07/31 06:51:24;;;;;;;10.45;5.95;;;;;;;22.89;74.34;94898.22;4950690;28;20859;-70
2023/07/31 06:53:49;;;;;;;10.40;5.72;;;;;;;22.83;73.90;94894.00;4940163;28;20613;-70
2023/07/31 06:56:15;;;;;;;8.32;5.60;;;;;;;22.99;73.37;94892.81;4933972;28;20243;-69
2023/07/31 06:58:40;;;;;;;6.47;5.32;;;;;;;22.87;73.55;94893.16;4941405;28;20241;-69
2023/07/31 07:01:06;;;;;;;10.05;5.57;;;;;;;23.02;73.02;94898.44;4940519;28;20645;-70
2023/07/31 07:03:32;;;;;;;9.63;5.15;;;;;;;23.04;72.89;94893.59;4940976;28;20740;-70
2023/07/31 07:05:58;;;;;;;8.18;5.40;;;;;;;23.20;72.30;94891.59;4965947;28;20237;-69
2023/07/31 07:08:24;;;;;;;7.50;5.38;;;;;;;23.28;71.53;94889.16;4948139;28;20228;-71
2023/07/31 07:10:49;;;;;;;7.80;5.40;;;;;;;23.08;70.97;94885.81;4949704;28;20236;-70
2023/07/31 07:13:16;;;;;;;7.22;5.05;;;;;;;23.10;71.16;94886.34;4920834;28;20241;-72
2023/07/31 07:15:41;;;;;;;6.75;5.28;;;;;;;23.10;71.37;94886.34;4936835;28;20229;-70
2023/07/31 07:18:10;;;;;;;7.30;4.88;;;;;;;23.09;70.70;94885.56;4942576;28;20238;-70
2023/07/31 07:20:36;;;;;;;7.38;4.68;;;;;;;23.27;69.52;94887.53;4924257;28;20232;-71
2023/07/31 07:23:02;;;;;;;5.93;4.82;;;;;;;23.30;69.75;94892.34;4954230;28;20235;-71
2023/07/31 07:25:27;;;;;;;7.55;4.55;;;;;;;23.31;69.54;94893.91;4949489;28;20237;-70
2023/07/31 07:27:53;;;;;;;6.07;5.10;;;;;;;23.17;70.01;94886.81;4949025;28;21185;-70
2023/07/31 07:30:19;;;;;;;6.22;5.05;;;;;;;23.11;70.27;94882.59;4940977;28;20622;-72
2023/07/31 07:32:45;;;;;;;5.72;4.50;;;;;;;23.08;70.56;94891.16;4947494;28;20232;-69
2023/07/31 07:35:11;;;;;;;7.30;4.47;;;;;;;23.13;70.55;94886.59;4934872;28;20237;-69
2023/07/31 07:37:37;;;;;;;6.88;4.80;;;;;;;23.13;71.03;94886.59;4931454;28;20326;-70
2023/07/31 07:40:03;;;;;;;8.25;4.43;;;;;;;23.15;70.61;94881.75;4923554;28;20608;-70
2023/07/31 07:42:29;;;;;;;5.70;4.60;;;;;;;23.14;70.35;94885.50;4949553;28;20227;-71
2023/07/31 07:44:54;;;;;;;6.28;4.70;;;;;;;23.25;70.35;94897.72;4927776;28;20228;-71
2023/07/31 07:47:20;;;;;;;5.22;4.50;;;;;;;23.25;70.14;94891.56;4931753;28;20343;-70
2023/07/31 07:49:46;;;;;;;5.47;4.53;;;;;;;23.18;69.98;94883.06;4949512;28;20594;-70
2023/07/31 07:52:11;;;;;;;10.57;4.85;;;;;;;23.45;69.32;94892.22;4950228;28;20225;-71
2023/07/31 07:54:37;;;;;;;9.38;4.78;;;;;;;23.50;68.27;94898.63;4949658;28;20247;-70
2023/07/31 07:57:03;;;;;;;9.32;4.32;;;;;;;23.68;67.48;94893.38;4936714;28;20241;-70
2023/07/31 07:59:29;;;;;;;6.13;4.20;;;;;;;23.72;66.28;94910.44;4947763;28;20695;-70
2023/07/31 08:01:54;;;;;;;6.60;3.78;;;;;;;23.69;66.80;94900.28;4949715;28;20605;-70
2023/07/31 08:04:20;;;;;;;6.60;3.90;;;;;;;23.87;66.80;94902.28;4951158;28;20237;-70
2023/07/31 08:06:46;;;;;;;8.27;4.20;;;;;;;23.95;65.68;94906.22;4950427;28;20320;-70
2023/07/31 08:09:11;;;;;;;6.95;4.45;;;;;;;23.92;66.36;94912.13;4939045;28;20237;-71
2023/07/31 08:11:37;;;;;;;6.68;4.03;;;;;;;24.11;65.58;94899.66;4950264;28;20240;-70
2023/07/31 08:14:02;;;;;;;7.13;4.55;;;;;;;24.21;65.23;94901.44;4942834;28;20232;-69
2023/07/31 08:16:28;;;;;;;5.43;4.43;;;;;;;24.19;64.48;94908.94;4950467;28;20626;-70
2023/07/31 08:18:54;;;;;;;6.05;4.18;;;;;;;23.99;64.89;94909.91;4948354;28;20252;-70
2023/07/31 08:21:20;;;;;;;7.57;4.20;;;;;;;24.03;63.48;94909.06;4957716;28;20306;-69
2023/07/31 08:23:45;;;;;;;6.63;4.38;;;;;;;24.33;63.28;94904.50;4937005;28;20335;-69
2023/07/31 08:26:18;;;;;;;5.65;4.22;;;;;;;24.48;62.67;94907.00;4927793;28;20243;-71
2023/07/31 08:28:43;;;;;;;6.68;4.45;;;;;;;24.39;62.97;94904.16;4991325;28;20233;-70
2023/07/31 08:31:09;;;;;;;5.97;4.60;;;;;;;24.63;61.73;94896.09;4990248;28;20272;-69
2023/07/31 08:33:35;;;;;;;6.70;4.30;;;;;;;24.82;61.45;94902.28;4957153;28;20315;-69
2023/07/31 08:36:01;;;;;;;7.35;4.00;;;;;;;24.77;60.82;94897.00;4929100;29;20240;-69
2023/07/31 08:38:27;;;;;;;7.25;4.45;;;;;;;24.72;61.30;94892.47;4926113;29;20240;-69
2023/07/31 08:40:53;;;;;;;5.68;4.30;;;;;;;24.92;60.43;94893.31;4918573;29;20232;-70
2023/07/31 08:43:19;;;;;;;4.82;3.90;;;;;;;24.91;60.07;94889.84;4930834;28;20276;-70
2023/07/31 08:45:45;;;;;;;5.78;4.28;;;;;;;25.05;60.49;94896.09;4947766;28;20222;-69
2023/07/31 08:48:10;;;;;;;7.22;4.28;;;;;;;25.17;58.89;94888.38;4932668;29;20233;-69
2023/07/31 08:50:37;;;;;;;5.10;4.03;;;;;;;25.23;58.49;94895.28;4945431;28;21722;-68
2023/07/31 08:53:03;;;;;;;5.40;3.97;;;;;;;25.16;58.68;94894.84;4940346;28;20252;-70
2023/07/31 08:55:28;;;;;;;6.18;4.03;;;;;;;25.20;57.85;94889.69;4973807;28;20324;-70
2023/07/31 08:57:54;;;;;;;6.95;4.07;;;;;;;25.25;58.39;94887.72;4935820;29;20229;-69
2023/07/31 09:00:21;;;;;;;4.90;4.15;;;;;;;25.16;57.43;94897.53;4965539;28;20773;-69
2023/07/31 09:02:56;;;;;;;5.60;3.92;;;;;;;25.32;57.44;94893.50;4989417;28;20289;-70
2023/07/31 09:05:22;;;;;;;5.00;3.90;;;;;;;25.59;56.54;94882.13;4992645;28;20233;-69
2023/07/31 09:07:48;;;;;;;8.88;3.72;;;;;;;25.78;56.62;94882.88;4923338;29;20264;-71
2023/07/31 09:10:13;;;;;;;6.88;4.07;;;;;;;25.98;56.71;94889.75;4917966;29;20241;-70
2023/07/31 09:12:39;;;;;;;5.63;3.78;;;;;;;25.76;54.97;94890.41;4923032;29;20287;-72
2023/07/31 09:15:06;;;;;;;5.38;3.70;;;;;;;25.86;55.35;94884.06;4903268;28;20252;-70
2023/07/31 09:17:38;;;;;;;6.28;3.70;;;;;;;25.95;55.62;94891.16;4991358;28;20326;-70
2023/07/31 09:20:16;;;;;;;5.65;3.50;;;;;;;26.25;55.84;94880.97;4927343;29;20319;-70
2023/07/31 09:22:43;;;;;;;5.15;4.00;;;;;;;26.39;55.05;94876.38;5006487;28;20267;-69
2023/07/31 09:25:22;;;;;;;4.35;3.78;;;;;;;26.43;54.64;94883.53;4948918;28;20324;-70
2023/07/31 09:27:51;;;;;;;4.40;3.70;;;;;;;26.01;55.31;94878.41;4951146;28;20242;-69
2023/07/31 09:30:17;;;;;;;6.95;3.95;;;;;;;26.24;55.92;94874.81;4962828;28;20336;-73
2023/07/31 09:32:46;;;;;;;5.57;4.03;;;;;;;26.39;54.72;94877.16;4949654;28;20245;-71
2023/07/31 09:35:22;;;;;;;5.45;3.90;;;;;;;26.71;54.93;94868.97;4923060;29;20237;-69
2023/07/31 09:37:52;;;;;;;5.80;4.10;;;;;;;26.94;54.44;94867.16;4944983;28;20601;-70
2023/07/31 09:40:27;;;;;;;7.10;3.95;;;;;;;26.46;54.84;94858.75;4920052;28;20240;-69
2023/07/31 09:42:56;;;;;;;8.68;3.88;;;;;;;26.20;55.93;94867.66;4964150;28;20889;-70
2023/07/31 09:45:22;;;;;;;5.57;3.92;;;;;;;26.03;55.25;94860.16;4938551;28;20221;-70
2023/07/31 09:47:50;;;;;;;5.32;3.88;;;;;;;26.43;54.36;94866.63;4948737;28;20236;-69
2023/07/31 09:50:16;;;;;;;5.18;3.70;;;;;;;26.25;54.32;94860.28;4962848;28;20243;-70
2023/07/31 09:52:42;;;;;;;6.40;3.80;;;;;;;26.64;53.77;94859.75;4937393;28;20241;-70
2023/07/31 09:55:08;;;;;;;8.43;4.00;;;;;;;26.59;54.31;94857.97;4937289;28;20237;-69
2023/07/31 09:57:36;;;;;;;3.97;3.50;;;;;;;26.42;54.08;94852.41;4927507;28;20240;-68
2023/07/31 10:00:02;;;;;;;4.85;3.25;;;;;;;26.22;53.87;94852.03;4924743;29;20228;-70
2023/07/31 10:02:27;;;;;;;4.38;3.10;;;;;;;26.50;52.85;94854.41;4916031;29;20233;-70
2023/07/31 10:04:54;;;;;;;4.90;3.30;;;;;;;26.32;52.68;94847.25;4914583;28;20313;-70
2023/07/31 10:07:20;;;;;;;4.65;3.13;;;;;;;26.02;54.02;94858.56;4917393;28;20624;-70
2023/07/31 10:09:46;;;;;;;6.05;3.20;;;;;;;25.97;53.91;94850.59;4921233;29;20236;-70
2023/07/31 10:12:12;;;;;;;4.30;3.08;;;;;;;26.41;52.90;94852.72;4925130;29;20233;-71
2023/07/31 10:14:38;;;;;;;4.25;2.90;;;;;;;26.28;52.16;94859.69;4929179;28;20277;-73
2023/07/31 10:17:05;;;;;;;5.20;3.00;;;;;;;26.06;52.95;94851.50;4931933;29;20284;-69
2023/07/31 10:19:30;;;;;;;4.60;2.95;;;;;;;26.36;52.42;94856.31;4913596;28;20432;-69
2023/07/31 10:21:57;;;;;;;6.50;3.10;;;;;;;26.86;51.27;94843.72;4928890;29;20338;-70
2023/07/31 10:24:22;;;;;;;5.07;2.92;;;;;;;27.30;50.21;94848.31;4984192;28;20233;-70
2023/07/31 10:26:48;;;;;;;4.70;3.08;;;;;;;26.97;49.89;94846.94;4936212;28;20968;-68
2023/07/31 10:29:14;;;;;;;3.33;2.92;;;;;;;26.59;51.48;94849.91;4918573;29;20240;-69
2023/07/31 10:31:39;;;;;;;5.07;2.92;;;;;;;26.90;50.53;94843.88;4931966;28;20309;-71
2023/07/31 10:34:05;;;;;;;5.05;2.67;;;;;;;27.02;49.71;94842.25;4932448;29;20250;-69
2023/07/31 10:36:30;;;;;;;2.90;2.60;;;;;;;27.17;48.82;94841.91;4924834;29;20617;-70
2023/07/31 10:38:56;;;;;;;4.55;2.80;;;;;;;27.48;49.49;94838.50;4910519;28;20271;-70
2023/07/31 10:41:31;;;;;;;3.25;2.80;;;;;;;27.68;48.99;94849.53;4932832;28;21086;-70
2023/07/31 10:44:00;;;;;;;4.20;2.70;;;;;;;27.64;48.50;94837.81;5002562;28;20236;-69
2023/07/31 10:46:28;;;;;;;4.45;3.00;;;;;;;27.64;46.90;94835.13;4928459;28;20241;-68
2023/07/31 10:49:01;;;;;;;3.47;2.90;;;;;;;27.14;48.14;94831.75;4941911;29;20312;-70
2023/07/31 10:51:35;;;;;;;4.60;2.92;;;;;;;27.17;48.64;94838.44;4924036;29;20284;-69
2023/07/31 10:54:15;;;;;;;4.47;2.97;;;;;;;27.11;48.31;94834.25;4957649;28;20263;-70
2023/07/31 10:56:44;;;;;;;4.50;2.80;;;;;;;27.08;48.76;94824.94;4947272;28;20262;-69
2023/07/31 10:59:12;;;;;;;4.32;2.70;;;;;;;26.90;49.10;94828.56;4935077;29;20225;-69
2023/07/31 11:01:56;;;;;;;4.45;2.90;;;;;;;27.00;49.92;94825.66;4945973;28;20327;-69
2023/07/31 11:04:25;;;;;;;4.97;2.80;;;;;;;27.11;49.92;94820.81;4958642;28;20260;-70
2023/07/31 11:07:02;;;;;;;5.40;3.10;;;;;;;27.53;47.46;94823.03;4932129;28;20279;-70
2023/07/31 11:09:30;;;;;;;5.72;2.78;;;;;;;27.63;46.98;94824.69;4925386;28;20242;-70
2023/07/31 11:11:55;;;;;;;3.97;2.85;;;;;;;27.85;45.66;94814.66;4932141;29;20682;-69
2023/07/31 11:14:21;;;;;;;4.03;2.70;;;;;;;27.93;46.01;94815.78;4932583;29;20257;-70
2023/07/31 11:16:49;;;;;;;4.30;2.40;;;;;;;28.04;45.26;94812.53;4934571;28;20238;-69
2023/07/31 11:19:14;;;;;;;3.00;2.70;;;;;;;28.09;44.38;94811.59;4931092;29;20251;-69
2023/07/31 11:21:40;;;;;;;4.88;2.58;;;;;;;27.95;44.43;94817.06;4929988;29;20288;-72
2023/07/31 11:24:06;;;;;;;4.38;2.50;;;;;;;27.71;45.17;94816.66;4987124;28;20236;-70